createdAt,value
2019-05-06T00:01:04.866Z,1010.85
2019-05-06T00:06:04.784Z,1010.85
2019-05-06T00:11:05.627Z,1010.81
2019-05-06T00:16:04.892Z,1010.76
2019-05-06T00:21:04.854Z,1010.76
2019-05-06T00:26:04.191Z,1010.82
2019-05-06T00:31:12.105Z,1010.79
2019-05-06T00:36:01.975Z,1010.82
2019-05-06T00:45:59.761Z,1010.67
2019-05-06T00:51:00.665Z,1010.77
2019-05-06T00:56:00.811Z,1010.76
2019-05-06T01:00:59.932Z,1010.81
2019-05-06T01:05:59.717Z,1010.75
2019-05-06T01:10:59.716Z,1010.77
2019-05-06T01:15:59.723Z,1010.77
2019-05-06T01:20:59.834Z,1010.82
2019-05-06T01:25:59.559Z,1010.86
2019-05-06T01:30:59.809Z,1010.80
2019-05-06T01:35:58.945Z,1010.86
2019-05-06T01:40:57.685Z,1010.85
2019-05-06T01:45:56.812Z,1010.92
2019-05-06T01:50:57.738Z,1010.85
2019-05-06T01:55:57.175Z,1010.93
2019-05-06T02:00:56.798Z,1010.88
2019-05-06T02:05:56.688Z,1010.93
2019-05-06T02:10:56.018Z,1010.94
2019-05-06T02:15:55.767Z,1010.79
2019-05-06T02:20:55.801Z,1010.89
2019-05-06T02:25:57.483Z,1010.92
2019-05-06T02:30:57.716Z,1010.94
2019-05-06T02:35:57.238Z,1010.83
2019-05-06T02:40:57.697Z,1010.83
2019-05-06T02:45:56.943Z,1010.95
2019-05-06T02:50:56.781Z,1010.97
2019-05-06T02:55:56.783Z,1010.88
2019-05-06T03:00:56.743Z,1010.88
2019-05-06T03:05:57.799Z,1010.87
2019-05-06T03:10:57.784Z,1010.84
2019-05-06T03:15:57.780Z,1010.88
2019-05-06T03:20:57.789Z,1010.75
2019-05-06T03:25:58.645Z,1010.69
2019-05-06T03:30:57.709Z,1010.72
2019-05-06T03:36:06.984Z,1010.79
2019-05-06T03:40:57.759Z,1010.78
2019-05-06T03:45:57.791Z,1010.76
2019-05-06T03:50:56.761Z,1010.79
2019-05-06T03:55:57.659Z,1010.79
2019-05-06T04:00:57.780Z,1010.78
2019-05-06T04:05:56.777Z,1010.71
2019-05-06T04:10:56.776Z,1010.77
2019-05-06T04:15:56.786Z,1010.68
2019-05-06T04:20:56.103Z,1010.77
2019-05-06T04:25:57.978Z,1010.76
2019-05-06T04:30:55.103Z,1010.76
2019-05-06T04:35:54.206Z,1010.77
2019-05-06T04:40:54.357Z,1010.71
2019-05-06T04:45:54.008Z,1010.90
2019-05-06T04:50:54.055Z,1010.83
2019-05-06T05:00:53.375Z,1010.85
2019-05-06T05:05:53.275Z,1010.81
2019-05-06T05:10:53.217Z,1010.84
2019-05-06T05:20:52.846Z,1010.86
2019-05-06T05:25:55.479Z,1010.89
2019-05-06T05:30:52.080Z,1010.97
2019-05-06T05:35:49.998Z,1010.95
2019-05-06T05:40:52.484Z,1010.96
2019-05-06T05:45:52.193Z,1010.99
2019-05-06T05:50:51.961Z,1010.99
2019-05-06T05:55:49.947Z,1010.98
2019-05-06T06:00:49.187Z,1011.09
2019-05-06T06:05:51.964Z,1010.99
2019-05-06T06:10:52.242Z,1011.00
2019-05-06T06:15:48.887Z,1011.01
2019-05-06T06:20:47.848Z,1011.08
2019-05-06T06:25:47.946Z,1011.04
2019-05-06T06:30:48.273Z,1011.05
2019-05-06T06:35:47.887Z,1011.03
2019-05-06T06:40:47.926Z,1011.01
2019-05-06T06:45:47.248Z,1011.05
2019-05-06T06:50:48.088Z,1010.96
2019-05-06T06:55:48.280Z,1010.99
2019-05-06T07:00:46.840Z,1010.93
2019-05-06T07:05:45.861Z,1010.91
2019-05-06T07:10:45.917Z,1010.95
2019-05-06T07:15:45.995Z,1010.86
2019-05-06T07:20:45.898Z,1010.84
2019-05-06T07:25:48.300Z,1010.93
2019-05-06T07:30:45.920Z,1010.94
2019-05-06T07:35:45.955Z,1010.95
2019-05-06T07:40:45.974Z,1010.83
2019-05-06T07:45:46.821Z,1010.95
2019-05-06T07:50:49.217Z,1010.98
2019-05-06T07:55:47.365Z,1010.79
2019-05-06T08:00:47.867Z,1010.81
2019-05-06T08:05:58.062Z,1010.77
2019-05-06T08:10:47.584Z,1010.73
2019-05-06T08:15:47.746Z,1010.71
2019-05-06T08:20:46.694Z,1010.75
2019-05-06T08:25:49.464Z,1010.79
2019-05-06T08:30:47.763Z,1010.79
2019-05-06T08:35:47.807Z,1010.72
2019-05-06T08:40:47.676Z,1010.75
2019-05-06T08:45:46.601Z,1010.68
2019-05-06T08:55:48.151Z,1010.78
2019-05-06T09:00:47.191Z,1010.68
2019-05-06T09:05:47.777Z,1010.62
2019-05-06T09:10:47.674Z,1010.61
2019-05-06T09:15:47.566Z,1010.44
2019-05-06T09:20:46.562Z,1010.51
2019-05-06T09:25:49.679Z,1010.48
2019-05-06T09:30:47.666Z,1010.40
2019-05-06T09:35:46.924Z,1010.31
2019-05-06T09:40:46.036Z,1010.35
2019-05-06T09:45:45.825Z,1010.47
2019-05-06T09:50:46.591Z,1010.35
2019-05-06T10:00:45.661Z,1010.42
2019-05-06T10:05:45.907Z,1010.32
2019-05-06T10:10:56.160Z,1010.39
2019-05-06T10:15:45.355Z,1010.35
2019-05-06T10:20:44.978Z,1010.39
2019-05-06T10:30:44.182Z,1010.31
2019-05-06T10:35:44.655Z,1010.39
2019-05-06T10:40:57.278Z,1010.44
2019-05-06T10:45:43.946Z,1010.37
2019-05-06T10:50:44.573Z,1010.37
2019-05-06T10:55:44.134Z,1010.16
2019-05-06T11:00:44.387Z,1010.17
2019-05-06T11:10:45.168Z,1010.04
2019-05-06T11:15:43.649Z,1010.10
2019-05-06T11:20:45.118Z,1010.15
2019-05-06T11:25:45.208Z,1010.06
2019-05-06T11:30:44.761Z,1010.18
2019-05-06T11:35:43.997Z,1010.12
2019-05-06T11:45:44.596Z,1010.14
2019-05-06T11:50:44.650Z,1010.05
2019-05-06T11:55:44.142Z,1010.06
2019-05-06T12:00:44.432Z,1010.11
2019-05-06T12:05:43.834Z,1010.34
2019-05-06T12:10:42.927Z,1010.29
2019-05-06T12:15:43.629Z,1010.30
2019-05-06T12:20:43.789Z,1010.25
2019-05-06T12:25:45.470Z,1010.19
2019-05-06T12:30:42.861Z,1010.17
2019-05-06T12:35:42.861Z,1010.25
2019-05-06T12:40:42.947Z,1010.18
2019-05-06T12:45:42.991Z,1010.09
2019-05-06T12:50:39.776Z,1010.12
2019-05-06T12:55:42.896Z,1010.04
2019-05-06T13:00:39.623Z,1010.01
2019-05-06T13:05:39.604Z,1010.00
2019-05-06T13:10:41.977Z,1009.88
2019-05-06T13:15:38.934Z,1009.79
2019-05-06T13:20:39.313Z,1009.73
2019-05-06T13:25:42.190Z,1009.76
2019-05-06T13:30:38.874Z,1009.75
2019-05-06T13:35:41.944Z,1009.76
2019-05-06T13:40:51.310Z,1009.73
2019-05-06T13:45:38.415Z,1009.68
2019-05-06T13:50:38.512Z,1009.66
2019-05-06T13:55:36.748Z,1009.65
2019-05-06T14:00:36.677Z,1009.57
2019-05-06T14:05:35.654Z,1009.62
2019-05-06T14:10:34.693Z,1009.56
2019-05-06T14:15:34.592Z,1009.56
2019-05-06T14:20:33.726Z,1009.49
2019-05-06T14:25:33.765Z,1009.48
2019-05-06T14:30:32.983Z,1009.39
2019-05-06T14:35:32.824Z,1009.41
2019-05-06T14:40:33.720Z,1009.43
2019-05-06T14:45:33.353Z,1009.43
2019-05-06T14:50:45.104Z,1009.46
2019-05-06T14:55:32.715Z,1009.47
2019-05-06T15:00:32.017Z,1009.50
2019-05-06T15:05:33.266Z,1009.45
2019-05-06T15:10:32.303Z,1009.40
2019-05-06T15:15:32.408Z,1009.43
2019-05-06T15:20:34.097Z,1009.37
2019-05-06T15:25:34.024Z,1009.45
2019-05-06T15:30:34.049Z,1009.39
2019-05-06T15:35:32.758Z,1009.36
2019-05-06T15:40:35.975Z,1009.30
2019-05-06T15:45:32.630Z,1009.26
2019-05-06T15:50:32.443Z,1009.38
2019-05-06T15:55:32.631Z,1009.49
2019-05-06T16:00:32.539Z,1009.56
2019-05-06T16:05:31.694Z,1009.59
2019-05-06T16:10:29.733Z,1009.60
2019-05-06T16:15:33.480Z,1009.58
2019-05-06T16:20:33.172Z,1009.60
2019-05-06T16:25:32.130Z,1009.55
2019-05-06T16:30:33.756Z,1009.52
2019-05-06T16:35:32.674Z,1009.41
2019-05-06T16:40:31.643Z,1009.59
2019-05-06T16:45:30.641Z,1009.58
2019-05-06T16:50:32.939Z,1009.57
2019-05-06T16:55:32.970Z,1009.53
2019-05-06T17:00:32.188Z,1009.52
2019-05-06T17:05:29.585Z,1009.41
2019-05-06T17:10:29.610Z,1009.43
2019-05-06T17:15:31.971Z,1009.48
2019-05-06T17:20:32.611Z,1009.42
2019-05-06T17:25:33.456Z,1009.34
2019-05-06T17:30:33.168Z,1009.41
2019-05-06T17:35:32.771Z,1009.28
2019-05-06T17:40:29.789Z,1009.30
2019-05-06T17:45:31.963Z,1009.24
2019-05-06T17:50:32.731Z,1009.30
2019-05-06T17:55:32.276Z,1009.24
2019-05-06T18:00:29.153Z,1009.16
2019-05-06T18:05:27.712Z,1009.19
2019-05-06T18:10:26.598Z,1009.10
2019-05-06T18:15:25.904Z,1009.12
2019-05-06T18:20:24.574Z,1009.09
2019-05-06T18:25:24.099Z,1009.14
2019-05-06T18:30:32.962Z,1009.14
2019-05-06T18:35:24.727Z,1009.04
2019-05-06T18:40:23.912Z,1009.09
2019-05-06T18:45:23.634Z,1009.09
2019-05-06T18:50:24.600Z,1009.14
2019-05-06T18:55:25.663Z,1009.16
2019-05-06T19:00:24.742Z,1009.23
2019-05-06T19:05:26.955Z,1009.31
2019-05-06T19:10:23.651Z,1009.31
2019-05-06T19:15:23.658Z,1009.31
2019-05-06T19:20:24.644Z,1009.36
2019-05-06T19:25:26.464Z,1009.46
2019-05-06T19:30:24.741Z,1009.54
2019-05-06T19:35:23.679Z,1009.54
2019-05-06T19:40:23.030Z,1009.54
2019-05-06T19:45:23.918Z,1009.46
2019-05-06T19:50:25.960Z,1009.48
2019-05-06T19:55:23.738Z,1009.53
2019-05-06T20:00:23.659Z,1009.58
2019-05-06T20:05:22.902Z,1009.60
2019-05-06T20:10:23.010Z,1009.60
2019-05-06T20:15:21.851Z,1009.62
2019-05-06T20:20:22.904Z,1009.67
2019-05-06T20:25:22.117Z,1009.53
2019-05-06T20:30:22.021Z,1009.61
2019-05-06T20:35:22.369Z,1009.53
2019-05-06T20:40:22.927Z,1009.56
2019-05-06T20:45:22.358Z,1009.62
2019-05-06T20:50:22.532Z,1009.59
2019-05-06T20:55:20.139Z,1009.52
2019-05-06T21:00:22.335Z,1009.52
2019-05-06T21:05:22.791Z,1009.58
2019-05-06T21:10:22.015Z,1009.58
2019-05-06T21:15:22.843Z,1009.55
2019-05-06T21:20:20.672Z,1009.58
2019-05-06T21:25:22.620Z,1009.58
2019-05-06T21:30:20.667Z,1009.61
2019-05-06T21:35:22.058Z,1009.64
2019-05-06T21:40:19.026Z,1009.56
2019-05-06T21:45:18.147Z,1009.69
2019-05-06T21:50:17.763Z,1009.59
2019-05-06T21:55:16.865Z,1009.67
2019-05-06T22:00:17.722Z,1009.56
2019-05-06T22:05:16.680Z,1009.59
2019-05-06T22:10:16.680Z,1009.56
2019-05-06T22:15:16.735Z,1009.56
2019-05-06T22:20:15.879Z,1009.56
2019-05-06T22:25:15.954Z,1009.56
2019-05-06T22:30:15.722Z,1009.50
2019-05-06T22:35:15.708Z,1009.39
2019-05-06T22:40:14.901Z,1009.52
2019-05-06T22:45:14.269Z,1009.44
2019-05-06T22:50:13.899Z,1009.52
2019-05-06T22:55:13.637Z,1009.47
2019-05-06T23:00:15.027Z,1009.46
2019-05-06T23:05:12.326Z,1009.51
2019-05-06T23:10:11.811Z,1009.51
2019-05-06T23:15:12.156Z,1009.59
2019-05-06T23:20:12.765Z,1009.59
2019-05-06T23:25:12.701Z,1009.58
2019-05-06T23:30:12.807Z,1009.58
2019-05-06T23:35:12.842Z,1009.58
2019-05-06T23:40:12.624Z,1009.68
2019-05-06T23:45:09.716Z,1009.55
2019-05-06T23:50:09.112Z,1009.57
2019-05-06T23:55:08.681Z,1009.49
